createdAt,value
2023-04-04T00:02:46.069Z,3.00
2023-04-04T00:07:53.831Z,3.50
2023-04-04T00:12:59.256Z,3.30
2023-04-04T00:18:04.485Z,3.00
2023-04-04T00:23:12.841Z,3.47
2023-04-04T00:28:17.881Z,3.67
2023-04-04T00:33:22.982Z,2.77
2023-04-04T00:38:32.347Z,3.40
2023-04-04T00:43:38.449Z,3.23
2023-04-04T00:48:44.170Z,3.17
2023-04-04T00:53:54.241Z,3.33
2023-04-04T00:59:01.097Z,3.10
2023-04-04T01:04:07.244Z,3.57
2023-04-04T01:09:15.876Z,3.40
2023-04-04T01:14:21.197Z,3.00
2023-04-04T01:19:35.331Z,2.90
2023-04-04T01:24:50.106Z,3.80
2023-04-04T01:29:59.025Z,3.20
2023-04-04T01:35:21.189Z,2.97
2023-04-04T01:40:32.059Z,3.17
2023-04-04T01:45:39.833Z,3.60
2023-04-04T01:50:48.584Z,2.90
2023-04-04T01:55:54.568Z,3.30
2023-04-04T02:01:04.581Z,3.60
2023-04-04T02:06:10.065Z,3.50
2023-04-04T02:11:15.314Z,2.90
2023-04-04T02:16:23.162Z,3.63
2023-04-04T02:21:29.459Z,3.07
2023-04-04T02:26:34.656Z,3.50
2023-04-04T02:31:42.534Z,3.20
2023-04-04T02:36:47.801Z,4.60
2023-04-04T02:41:52.994Z,3.53
2023-04-04T02:47:00.963Z,3.70
2023-04-04T02:52:09.175Z,3.23
2023-04-04T02:57:18.852Z,3.37
2023-04-04T03:02:27.195Z,4.20
2023-04-04T03:07:32.978Z,4.33
2023-04-04T03:12:37.991Z,3.70
2023-04-04T03:17:48.461Z,3.93
2023-04-04T03:22:53.592Z,3.87
2023-04-04T03:27:59.228Z,5.57
2023-04-04T03:33:10.487Z,3.43
2023-04-04T03:38:16.950Z,3.73
2023-04-04T03:43:22.037Z,4.70
2023-04-04T03:48:30.350Z,4.23
2023-04-04T03:53:35.966Z,4.13
2023-04-04T03:58:41.819Z,3.70
2023-04-04T04:03:53.848Z,4.07
2023-04-04T04:08:59.331Z,3.87
2023-04-04T04:14:04.466Z,4.13
2023-04-04T04:19:12.166Z,5.93
2023-04-04T04:24:19.543Z,3.67
2023-04-04T04:29:24.679Z,4.33
2023-04-04T04:34:33.477Z,3.57
2023-04-04T04:39:38.641Z,3.53
2023-04-04T04:45:03.970Z,4.27
2023-04-04T04:50:15.499Z,4.63
2023-04-04T04:55:23.606Z,4.07
2023-04-04T05:00:40.897Z,4.27
2023-04-04T05:05:48.968Z,3.97
2023-04-04T05:10:55.296Z,4.43
2023-04-04T05:16:05.039Z,5.10
2023-04-04T05:21:14.350Z,3.90
2023-04-04T05:26:22.298Z,3.97
2023-04-04T05:31:29.924Z,3.23
2023-04-04T05:36:39.247Z,5.00
2023-04-04T05:41:45.446Z,4.50
2023-04-04T05:46:54.766Z,3.77
2023-04-04T05:52:05.252Z,4.37
2023-04-04T05:57:12.508Z,4.60
2023-04-04T06:02:25.609Z,3.87
2023-04-04T06:07:40.062Z,3.03
2023-04-04T06:12:49.371Z,3.10
2023-04-04T06:17:56.138Z,3.40
2023-04-04T06:23:05.005Z,3.30
2023-04-04T06:28:16.248Z,2.93
2023-04-04T06:33:23.552Z,2.80
2023-04-04T06:38:31.949Z,2.60
2023-04-04T06:43:40.819Z,2.77
2023-04-04T06:48:45.981Z,3.03
2023-04-04T06:53:53.757Z,3.03
2023-04-04T06:58:58.909Z,3.60
2023-04-04T07:04:04.181Z,2.90
2023-04-04T07:09:21.928Z,2.80
2023-04-04T07:14:33.536Z,2.70
2023-04-04T07:19:38.598Z,2.77
2023-04-04T07:24:46.311Z,2.43
2023-04-04T07:29:51.414Z,2.67
2023-04-04T07:34:56.459Z,3.10
2023-04-04T07:40:08.167Z,2.13
2023-04-04T07:45:14.030Z,2.03
2023-04-04T07:50:20.946Z,2.30
2023-04-04T07:55:29.244Z,2.10
2023-04-04T08:00:39.188Z,1.60
2023-04-04T08:05:47.003Z,2.70
2023-04-04T08:10:58.009Z,1.70
2023-04-04T08:16:03.264Z,1.90
2023-04-04T08:21:09.062Z,1.90
2023-04-04T08:26:16.981Z,2.03
2023-04-04T08:31:22.444Z,1.70
2023-04-04T08:36:28.853Z,1.70
2023-04-04T08:41:38.238Z,2.27
2023-04-04T08:46:48.235Z,1.80
2023-04-04T08:51:56.079Z,1.80
2023-04-04T08:57:06.318Z,1.33
2023-04-04T09:02:20.680Z,1.47
2023-04-04T09:07:27.451Z,1.43
2023-04-04T09:18:18.537Z,1.40
2023-04-04T09:23:25.590Z,3.53
2023-04-04T09:28:33.412Z,1.80
2023-04-04T09:33:39.102Z,2.00
2023-04-04T09:38:48.902Z,1.70
2023-04-04T09:43:56.940Z,1.73
2023-04-04T09:49:04.990Z,1.33
2023-04-04T09:54:26.219Z,2.00
2023-04-04T09:59:37.574Z,2.17
2023-04-04T10:05:03.353Z,1.73
2023-04-04T10:10:13.793Z,1.57
2023-04-04T10:15:24.023Z,1.63
2023-04-04T10:20:32.140Z,1.70
2023-04-04T10:25:37.942Z,1.50
2023-04-04T10:31:05.743Z,1.60
2023-04-04T10:36:16.042Z,1.70
2023-04-04T10:41:23.557Z,1.75
2023-04-04T10:46:36.729Z,1.70
2023-04-04T10:51:54.947Z,1.40
2023-04-04T10:57:04.958Z,2.27
2023-04-04T11:02:13.330Z,2.00
2023-04-04T11:07:22.086Z,1.70
2023-04-04T11:12:34.443Z,1.80
2023-04-04T11:18:10.522Z,1.53
2023-04-04T11:23:24.737Z,2.03
2023-04-04T11:28:48.715Z,1.70
2023-04-04T11:34:06.020Z,1.70
2023-04-04T11:39:12.899Z,1.73
2023-04-04T11:44:19.442Z,5.00
2023-04-04T11:49:32.904Z,1.77
2023-04-04T11:54:40.879Z,1.50
2023-04-04T11:59:52.610Z,2.97
2023-04-04T12:05:01.102Z,1.90
2023-04-04T12:10:06.835Z,2.00
2023-04-04T12:15:26.432Z,2.23
2023-04-04T12:20:41.870Z,1.40
2023-04-04T12:25:50.133Z,1.70
2023-04-04T12:30:56.207Z,1.80
2023-04-04T12:36:06.746Z,2.20
2023-04-04T12:41:19.824Z,2.03
2023-04-04T12:46:30.265Z,2.17
2023-04-04T12:51:39.705Z,2.17
2023-04-04T12:56:47.913Z,1.70
2023-04-04T13:01:57.607Z,1.83
2023-04-04T13:07:11.266Z,2.37
2023-04-04T13:12:17.034Z,1.50
2023-04-04T13:17:24.268Z,6.10
2023-04-04T13:22:40.572Z,1.63
2023-04-04T13:27:48.214Z,1.57
2023-04-04T13:32:56.834Z,1.53
2023-04-04T13:38:04.827Z,1.20
2023-04-04T13:43:11.590Z,2.20
2023-04-04T13:48:17.028Z,2.13
2023-04-04T13:53:27.421Z,1.33
2023-04-04T13:58:49.659Z,1.50
2023-04-04T14:03:58.547Z,1.67
2023-04-04T14:09:10.919Z,1.70
2023-04-04T14:14:16.076Z,1.97
2023-04-04T14:19:21.356Z,1.93
2023-04-04T14:24:29.051Z,2.07
2023-04-04T14:29:34.251Z,1.83
2023-04-04T14:34:41.264Z,2.27
2023-04-04T14:39:49.161Z,1.73
2023-04-04T14:44:54.309Z,1.57
2023-04-04T14:50:00.604Z,1.50
2023-04-04T14:55:13.346Z,1.27
2023-04-04T15:00:25.272Z,1.70
2023-04-04T15:05:33.852Z,1.60
2023-04-04T15:10:52.047Z,1.60
2023-04-04T15:15:59.324Z,1.90
2023-04-04T15:21:10.995Z,1.87
2023-04-04T15:26:18.815Z,1.53
2023-04-04T15:31:26.479Z,1.50
2023-04-04T15:36:36.658Z,1.33
2023-04-04T15:41:45.722Z,1.73
2023-04-04T15:46:50.915Z,1.60
2023-04-04T15:52:01.503Z,2.00
2023-04-04T15:57:13.562Z,2.53
2023-04-04T16:02:22.072Z,2.13
2023-04-04T16:07:27.182Z,1.60
2023-04-04T16:12:36.385Z,1.20
2023-04-04T16:17:44.997Z,1.67
2023-04-04T16:22:50.240Z,1.70
2023-04-04T16:27:59.346Z,2.40
2023-04-04T16:33:04.598Z,2.33
2023-04-04T16:38:15.453Z,2.17
2023-04-04T16:43:24.055Z,1.90
2023-04-04T16:48:29.133Z,2.30
2023-04-04T16:53:34.114Z,2.23
2023-04-04T16:58:43.109Z,3.70
2023-04-04T17:03:51.099Z,4.20
2023-04-04T17:08:58.999Z,8.17
2023-04-04T17:14:06.636Z,11.97
2023-04-04T17:19:11.785Z,6.43
2023-04-04T17:24:17.546Z,30.27
2023-04-04T17:29:27.186Z,13.60
2023-04-04T17:34:32.552Z,5.10
2023-04-04T17:39:42.848Z,7.20
2023-04-04T17:44:52.005Z,6.13
2023-04-04T17:50:01.433Z,3.40
2023-04-04T17:55:06.848Z,7.03
2023-04-04T18:00:16.934Z,4.10
2023-04-04T18:05:23.914Z,3.93
2023-04-04T18:10:29.122Z,10.97
2023-04-04T18:15:41.360Z,7.37
2023-04-04T18:20:48.724Z,4.33
2023-04-04T18:26:00.233Z,6.77
2023-04-04T18:31:08.318Z,5.83
2023-04-04T18:36:14.134Z,4.47
2023-04-04T18:41:20.231Z,3.77
2023-04-04T18:46:36.559Z,2.80
2023-04-04T18:51:42.182Z,4.53
2023-04-04T18:56:47.440Z,4.87
2023-04-04T19:01:56.586Z,4.20
2023-04-04T19:07:05.743Z,4.30
2023-04-04T19:12:11.164Z,6.50
2023-04-04T19:17:18.848Z,4.50
2023-04-04T19:22:24.180Z,8.53
2023-04-04T19:27:30.396Z,6.60
2023-04-04T19:32:39.434Z,6.27
2023-04-04T19:37:46.204Z,8.53
2023-04-04T19:42:51.589Z,5.97
2023-04-04T19:47:59.606Z,5.17
2023-04-04T19:53:06.137Z,4.67
2023-04-04T19:58:21.298Z,4.80
2023-04-04T20:03:34.464Z,6.27
2023-04-04T20:08:47.408Z,4.47
2023-04-04T20:13:52.889Z,3.50
2023-04-04T20:19:01.932Z,3.37
2023-04-04T20:24:09.960Z,5.57
2023-04-04T20:29:18.527Z,5.07
2023-04-04T20:34:42.007Z,4.83
2023-04-04T20:39:50.710Z,5.53
2023-04-04T20:44:57.595Z,4.40
2023-04-04T20:50:23.990Z,4.30
2023-04-04T20:55:32.051Z,4.17
2023-04-04T21:00:45.033Z,3.97
2023-04-04T21:05:53.345Z,3.57
2023-04-04T21:11:00.110Z,3.50
2023-04-04T21:16:06.862Z,3.23
2023-04-04T21:21:22.706Z,3.70
2023-04-04T21:26:36.050Z,3.73
2023-04-04T21:31:47.012Z,4.40
2023-04-04T21:36:56.482Z,4.10
2023-04-04T21:42:06.969Z,3.63
2023-04-04T21:47:16.256Z,3.30
2023-04-04T21:52:23.881Z,4.30
2023-04-04T21:57:30.089Z,4.27
2023-04-04T22:02:35.150Z,4.90
2023-04-04T22:07:42.846Z,3.57
2023-04-04T22:12:50.067Z,5.00
2023-04-04T22:17:56.277Z,5.90
2023-04-04T22:23:07.691Z,5.70
2023-04-04T22:28:12.973Z,6.53
2023-04-04T22:33:18.065Z,6.83
2023-04-04T22:38:25.847Z,8.10
2023-04-04T22:43:31.544Z,7.50
2023-04-04T22:48:41.539Z,6.33
2023-04-04T22:53:50.653Z,6.90
2023-04-04T22:58:56.176Z,6.50
2023-04-04T23:04:01.401Z,6.50
2023-04-04T23:09:10.593Z,7.23
2023-04-04T23:14:19.828Z,7.00
2023-04-04T23:19:25.349Z,6.90
2023-04-04T23:24:33.092Z,6.37
2023-04-04T23:29:40.278Z,5.97
2023-04-04T23:34:45.327Z,5.80
2023-04-04T23:39:53.186Z,5.07
2023-04-04T23:45:01.552Z,5.27
2023-04-04T23:50:07.801Z,5.73
2023-04-04T23:55:17.261Z,4.90
